createdAt,value
2023-05-21T00:00:26.856Z,52.30
2023-05-21T00:02:55.767Z,52.30
2023-05-21T00:05:27.905Z,52.40
2023-05-21T00:07:54.935Z,52.40
2023-05-21T00:10:27.602Z,52.40
2023-05-21T00:12:54.457Z,52.50
2023-05-21T00:15:23.432Z,52.60
2023-05-21T00:17:50.402Z,52.50
2023-05-21T00:20:23.248Z,52.60
2023-05-21T00:22:52.737Z,52.70
2023-05-21T00:25:21.918Z,52.80
2023-05-21T00:27:53.393Z,52.80
2023-05-21T00:30:23.248Z,52.90
2023-05-21T00:32:52.394Z,53.10
2023-05-21T00:35:23.898Z,52.90
2023-05-21T00:37:52.010Z,53.00
2023-05-21T00:40:23.753Z,53.00
2023-05-21T00:42:50.651Z,53.10
2023-05-21T00:45:17.575Z,53.10
2023-05-21T00:47:45.964Z,53.30
2023-05-21T00:50:15.182Z,53.30
2023-05-21T00:52:49.036Z,53.40
2023-05-21T00:55:23.118Z,53.50
2023-05-21T00:57:52.609Z,53.40
2023-05-21T01:00:26.323Z,53.50
2023-05-21T01:02:53.543Z,53.70
2023-05-21T01:05:25.010Z,53.60
2023-05-21T01:07:56.752Z,53.60
2023-05-21T01:10:24.883Z,53.90
2023-05-21T01:12:58.034Z,53.70
2023-05-21T01:15:27.580Z,54.10
2023-05-21T01:17:59.744Z,53.80
2023-05-21T01:20:34.665Z,53.90
2023-05-21T01:23:02.586Z,54.10
2023-05-21T01:25:35.033Z,53.90
2023-05-21T01:28:02.313Z,54.00
2023-05-21T01:30:34.223Z,54.00
2023-05-21T01:33:08.125Z,54.10
2023-05-21T01:36:08.541Z,54.20
2023-05-21T01:39:09.175Z,54.90
2023-05-21T01:41:44.870Z,54.60
2023-05-21T01:44:18.722Z,54.20
2023-05-21T01:46:47.894Z,54.50
2023-05-21T01:49:19.956Z,54.20
2023-05-21T01:51:48.498Z,54.30
2023-05-21T01:54:15.693Z,54.30
2023-05-21T01:56:42.629Z,54.40
2023-05-21T01:59:14.478Z,54.40
2023-05-21T02:01:44.305Z,54.60
2023-05-21T02:04:15.892Z,54.50
2023-05-21T02:06:45.124Z,54.60
2023-05-21T02:09:12.200Z,54.60
2023-05-21T02:11:39.215Z,54.70
2023-05-21T02:14:10.459Z,54.70
2023-05-21T02:16:38.435Z,54.80
2023-05-21T02:19:10.327Z,54.80
2023-05-21T02:21:39.696Z,54.80
2023-05-21T02:24:06.923Z,55.10
2023-05-21T02:26:37.332Z,54.90
2023-05-21T02:29:06.993Z,55.10
2023-05-21T02:31:33.888Z,55.00
2023-05-21T02:34:03.341Z,55.10
2023-05-21T02:36:36.015Z,55.10
2023-05-21T02:39:05.540Z,55.20
2023-05-21T02:41:38.060Z,55.20
2023-05-21T02:44:05.140Z,55.20
2023-05-21T02:46:34.352Z,55.20
2023-05-21T02:49:04.048Z,55.30
2023-05-21T02:51:36.059Z,55.50
2023-05-21T02:54:05.788Z,55.60
2023-05-21T02:56:32.674Z,55.60
2023-05-21T02:59:04.179Z,55.50
2023-05-21T03:01:33.789Z,55.60
2023-05-21T03:04:00.919Z,55.50
2023-05-21T03:06:28.139Z,55.60
2023-05-21T03:08:55.011Z,55.60
2023-05-21T03:11:24.133Z,55.70
2023-05-21T03:13:53.018Z,55.70
2023-05-21T03:16:24.447Z,55.80
2023-05-21T03:18:54.161Z,55.70
2023-05-21T03:21:22.676Z,55.90
2023-05-21T03:23:52.919Z,55.90
2023-05-21T03:26:22.279Z,56.00
2023-05-21T03:28:51.855Z,56.00
2023-05-21T03:31:22.542Z,56.00
2023-05-21T03:34:08.961Z,56.20
2023-05-21T03:36:36.119Z,56.00
2023-05-21T03:39:05.370Z,56.10
2023-05-21T03:41:38.454Z,56.20
2023-05-21T03:44:11.863Z,56.30
2023-05-21T03:46:50.815Z,56.20
2023-05-21T03:49:28.958Z,56.20
2023-05-21T03:51:59.658Z,56.20
2023-05-21T03:54:29.860Z,56.20
2023-05-21T03:57:01.494Z,56.50
2023-05-21T03:59:34.917Z,56.30
2023-05-21T04:02:04.038Z,56.30
2023-05-21T04:04:33.817Z,56.40
2023-05-21T04:07:10.306Z,56.40
2023-05-21T04:09:39.244Z,56.50
2023-05-21T04:12:10.917Z,56.40
2023-05-21T04:14:37.992Z,56.40
2023-05-21T04:17:05.723Z,56.50
2023-05-21T04:19:38.698Z,56.60
2023-05-21T04:22:11.182Z,56.70
2023-05-21T04:24:39.233Z,56.80
2023-05-21T04:27:11.033Z,56.70
2023-05-21T04:29:42.440Z,56.70
2023-05-21T04:32:09.555Z,56.70
2023-05-21T04:34:41.888Z,56.80
2023-05-21T04:37:09.357Z,56.90
2023-05-21T04:39:36.420Z,56.90
2023-05-21T04:42:05.816Z,56.90
2023-05-21T04:44:32.796Z,56.90
2023-05-21T04:47:00.838Z,56.90
2023-05-21T04:49:34.876Z,57.00
2023-05-21T04:52:08.872Z,57.00
2023-05-21T04:54:42.019Z,57.20
2023-05-21T04:57:09.115Z,57.10
2023-05-21T04:59:39.121Z,57.10
2023-05-21T05:02:09.382Z,57.10
2023-05-21T05:04:38.484Z,57.10
2023-05-21T05:07:08.677Z,57.80
2023-05-21T05:09:36.176Z,57.20
2023-05-21T05:12:06.469Z,57.30
2023-05-21T05:14:36.061Z,57.30
2023-05-21T05:17:03.256Z,57.30
2023-05-21T05:19:35.086Z,57.30
2023-05-21T05:22:02.196Z,57.30
2023-05-21T05:24:30.855Z,57.30
2023-05-21T05:26:57.778Z,57.30
2023-05-21T05:29:29.346Z,57.30
2023-05-21T05:31:56.349Z,57.40
2023-05-21T05:34:25.409Z,57.40
2023-05-21T05:36:58.008Z,57.40
2023-05-21T05:39:26.995Z,57.40
2023-05-21T05:41:54.065Z,57.40
2023-05-21T05:44:21.657Z,57.40
2023-05-21T05:46:50.807Z,57.40
2023-05-21T05:49:17.717Z,57.40
2023-05-21T05:51:44.727Z,57.50
2023-05-21T05:54:11.688Z,57.50
2023-05-21T05:56:41.086Z,57.50
2023-05-21T05:59:10.754Z,57.50
2023-05-21T06:01:42.366Z,57.50
2023-05-21T06:04:16.426Z,57.50
2023-05-21T06:06:47.890Z,57.60
2023-05-21T06:09:17.068Z,57.50
2023-05-21T06:11:46.501Z,57.50
2023-05-21T06:14:13.599Z,57.50
2023-05-21T06:16:42.795Z,57.50
2023-05-21T06:19:11.932Z,57.50
2023-05-21T06:21:39.175Z,57.50
2023-05-21T06:24:09.936Z,57.60
2023-05-21T06:26:39.145Z,57.50
2023-05-21T06:29:08.188Z,57.60
2023-05-21T06:31:37.954Z,57.60
2023-05-21T06:34:07.056Z,57.70
2023-05-21T06:36:38.594Z,57.60
2023-05-21T06:39:10.247Z,57.50
2023-05-21T06:41:42.486Z,57.50
2023-05-21T06:44:31.787Z,57.60
2023-05-21T06:47:26.217Z,57.50
2023-05-21T06:49:53.513Z,57.50
2023-05-21T06:52:22.995Z,57.60
2023-05-21T06:54:52.369Z,57.60
2023-05-21T06:57:23.059Z,57.60
2023-05-21T06:59:54.753Z,57.70
2023-05-21T07:02:21.769Z,57.70
2023-05-21T07:04:48.728Z,57.70
2023-05-21T07:07:15.651Z,57.80
2023-05-21T07:09:45.132Z,57.80
2023-05-21T07:12:16.080Z,57.70
2023-05-21T07:14:43.056Z,57.70
2023-05-21T07:17:12.554Z,57.70
2023-05-21T07:19:41.921Z,57.70
2023-05-21T07:22:12.556Z,57.50
2023-05-21T07:24:42.205Z,57.60
2023-05-21T07:27:24.597Z,57.60
2023-05-21T07:29:54.018Z,57.50
2023-05-21T07:32:28.982Z,57.40
2023-05-21T07:35:03.824Z,57.50
2023-05-21T07:37:34.320Z,57.50
2023-05-21T07:40:04.279Z,57.40
2023-05-21T07:42:35.164Z,57.20
2023-05-21T07:45:03.084Z,57.10
2023-05-21T07:47:37.408Z,57.00
2023-05-21T07:50:05.994Z,57.00
2023-05-21T07:52:33.045Z,56.80
2023-05-21T07:55:04.253Z,56.80
2023-05-21T07:57:38.461Z,56.80
2023-05-21T08:00:15.034Z,57.00
2023-05-21T08:02:56.290Z,57.00
2023-05-21T08:05:27.976Z,57.00
2023-05-21T08:08:01.980Z,56.90
2023-05-21T08:10:32.777Z,56.90
2023-05-21T08:13:02.922Z,56.80
2023-05-21T08:15:30.421Z,56.50
2023-05-21T08:17:57.597Z,56.50
2023-05-21T08:20:30.946Z,56.40
2023-05-21T08:23:00.845Z,56.40
2023-05-21T08:25:33.088Z,56.40
2023-05-21T08:28:03.704Z,56.40
2023-05-21T08:30:33.198Z,57.10
2023-05-21T08:33:02.341Z,56.40
2023-05-21T08:35:33.573Z,56.40
2023-05-21T08:38:08.761Z,56.40
2023-05-21T08:40:51.430Z,56.50
2023-05-21T08:43:21.593Z,56.60
2023-05-21T08:45:59.194Z,56.60
2023-05-21T08:48:32.938Z,56.50
2023-05-21T08:51:02.939Z,56.50
2023-05-21T08:53:37.013Z,57.00
2023-05-21T08:56:08.007Z,56.20
2023-05-21T08:59:02.856Z,56.20
2023-05-21T09:01:38.210Z,56.30
2023-05-21T09:04:21.915Z,56.30
2023-05-21T09:06:57.845Z,56.40
2023-05-21T09:09:58.516Z,56.40
2023-05-21T09:12:27.556Z,56.60
2023-05-21T09:14:58.395Z,56.20
2023-05-21T09:17:32.192Z,56.20
2023-05-21T09:20:17.535Z,56.10
2023-05-21T09:22:51.464Z,56.10
2023-05-21T09:25:30.327Z,56.10
2023-05-21T09:28:04.742Z,55.80
2023-05-21T09:30:36.521Z,55.60
2023-05-21T09:33:06.155Z,55.50
2023-05-21T09:35:36.284Z,55.50
2023-05-21T09:38:09.695Z,55.30
2023-05-21T09:40:43.818Z,55.10
2023-05-21T09:43:15.909Z,54.90
2023-05-21T09:45:58.299Z,54.80
2023-05-21T09:48:42.125Z,54.60
2023-05-21T09:51:21.230Z,54.50
2023-05-21T09:53:51.834Z,54.40
2023-05-21T09:56:33.479Z,54.20
2023-05-21T09:59:12.116Z,54.00
2023-05-21T10:01:41.677Z,54.00
2023-05-21T10:04:11.637Z,53.90
2023-05-21T10:06:50.066Z,53.90
2023-05-21T10:09:22.274Z,53.80
2023-05-21T10:11:57.340Z,53.60
2023-05-21T10:14:35.480Z,53.60
2023-05-21T10:17:04.128Z,53.30
2023-05-21T10:19:37.666Z,53.40
2023-05-21T10:22:08.127Z,53.30
2023-05-21T10:24:36.768Z,53.40
2023-05-21T10:27:05.120Z,53.30
2023-05-21T10:29:37.982Z,53.30
2023-05-21T10:32:07.859Z,52.80
2023-05-21T10:34:38.849Z,52.60
2023-05-21T10:37:09.746Z,52.70
2023-05-21T10:39:43.302Z,52.20
2023-05-21T10:42:31.104Z,52.30
2023-05-21T10:45:37.867Z,52.00
2023-05-21T10:48:29.039Z,51.80
2023-05-21T10:51:19.059Z,52.00
2023-05-21T10:54:35.159Z,52.10
2023-05-21T10:57:47.913Z,51.70
2023-05-21T11:00:20.506Z,51.30
2023-05-21T11:02:52.897Z,51.30
2023-05-21T11:05:52.102Z,50.90
2023-05-21T11:08:31.663Z,50.30
2023-05-21T11:10:59.136Z,51.10
2023-05-21T11:13:48.954Z,50.60
2023-05-21T11:16:21.624Z,50.20
2023-05-21T11:18:50.564Z,50.20
2023-05-21T11:21:21.006Z,50.00
2023-05-21T11:23:50.996Z,49.80
2023-05-21T11:26:26.881Z,49.00
2023-05-21T11:29:12.474Z,48.40
2023-05-21T11:31:58.747Z,47.80
2023-05-21T11:34:28.833Z,47.80
2023-05-21T11:37:23.184Z,47.90
2023-05-21T11:39:51.788Z,46.70
2023-05-21T11:42:39.388Z,47.00
2023-05-21T11:45:07.119Z,45.80
2023-05-21T11:47:36.344Z,46.10
2023-05-21T11:50:04.580Z,45.80
2023-05-21T11:52:36.600Z,45.80
2023-05-21T11:55:05.307Z,45.60
2023-05-21T11:57:35.076Z,45.50
2023-05-21T12:00:13.924Z,45.50
2023-05-21T12:02:55.547Z,45.00
2023-05-21T12:05:27.036Z,44.90
2023-05-21T12:07:55.282Z,45.20
2023-05-21T12:10:23.226Z,45.10
2023-05-21T12:12:56.304Z,44.40
2023-05-21T12:15:28.674Z,44.30
2023-05-21T12:17:58.030Z,43.90
2023-05-21T12:20:29.208Z,43.50
2023-05-21T12:22:58.069Z,43.10
2023-05-21T12:25:25.301Z,42.70
2023-05-21T12:27:57.888Z,42.50
2023-05-21T12:30:31.465Z,42.40
2023-05-21T12:33:02.606Z,42.30
2023-05-21T12:35:31.367Z,41.80
2023-05-21T12:38:04.004Z,41.20
2023-05-21T12:40:39.032Z,41.10
2023-05-21T12:43:13.778Z,39.60
2023-05-21T12:45:45.453Z,40.00
2023-05-21T12:48:14.690Z,40.10
2023-05-21T12:50:47.863Z,39.80
2023-05-21T12:53:17.029Z,39.70
2023-05-21T12:55:43.967Z,39.60
2023-05-21T12:58:21.506Z,39.50
2023-05-21T13:00:48.374Z,39.30
2023-05-21T13:03:23.253Z,40.20
2023-05-21T13:06:01.305Z,39.10
2023-05-21T13:08:30.548Z,38.60
2023-05-21T13:11:06.924Z,38.80
2023-05-21T13:13:36.176Z,38.70
2023-05-21T13:16:05.582Z,38.60
2023-05-21T13:18:34.946Z,38.40
2023-05-21T13:21:06.403Z,38.10
2023-05-21T13:23:33.308Z,37.70
2023-05-21T13:26:02.495Z,36.90
2023-05-21T13:28:29.601Z,36.50
2023-05-21T13:31:01.123Z,36.30
2023-05-21T13:33:32.041Z,36.10
2023-05-21T13:36:01.396Z,36.00
2023-05-21T13:38:33.065Z,35.80
2023-05-21T13:40:59.983Z,35.20
2023-05-21T13:43:26.896Z,35.30
2023-05-21T13:45:58.753Z,34.80
2023-05-21T13:48:25.630Z,34.50
2023-05-21T13:50:54.695Z,35.60
2023-05-21T13:53:24.329Z,34.70
2023-05-21T13:55:58.272Z,34.50
2023-05-21T13:58:27.833Z,33.80
2023-05-21T14:00:54.762Z,34.00
2023-05-21T14:03:21.672Z,33.90
2023-05-21T14:05:53.669Z,33.80
2023-05-21T14:08:23.606Z,33.70
2023-05-21T14:10:52.801Z,33.50
2023-05-21T14:13:24.415Z,33.60
2023-05-21T14:15:53.546Z,33.40
2023-05-21T14:18:24.776Z,33.30
2023-05-21T14:20:56.446Z,34.10
2023-05-21T14:23:30.686Z,32.80
2023-05-21T14:25:59.685Z,32.80
2023-05-21T14:28:28.842Z,33.50
2023-05-21T14:30:58.073Z,32.70
2023-05-21T14:33:25.002Z,32.90
2023-05-21T14:35:51.920Z,32.60
2023-05-21T14:38:23.609Z,32.80
2023-05-21T14:40:52.835Z,32.60
2023-05-21T14:43:24.327Z,32.60
2023-05-21T14:45:53.457Z,32.80
2023-05-21T14:48:25.297Z,32.80
2023-05-21T14:50:54.535Z,32.80
2023-05-21T14:53:23.870Z,32.70
2023-05-21T14:55:57.373Z,32.70
2023-05-21T14:58:24.368Z,32.80
2023-05-21T15:00:51.440Z,32.80
2023-05-21T15:03:20.684Z,32.60
2023-05-21T15:05:52.551Z,32.60
2023-05-21T15:08:24.396Z,32.70
2023-05-21T15:10:51.543Z,32.30
2023-05-21T15:13:21.355Z,32.70
2023-05-21T15:15:49.348Z,32.60
2023-05-21T15:18:20.825Z,32.80
2023-05-21T15:20:51.162Z,32.70
2023-05-21T15:23:18.476Z,32.80
2023-05-21T15:25:47.866Z,32.70
2023-05-21T15:28:14.883Z,32.70
2023-05-21T15:30:44.256Z,32.80
2023-05-21T15:33:11.624Z,32.80
2023-05-21T15:35:39.025Z,32.90
2023-05-21T15:38:08.933Z,32.60
2023-05-21T15:40:35.921Z,32.50
2023-05-21T15:43:05.827Z,32.70
2023-05-21T15:45:35.128Z,32.50
2023-05-21T15:48:02.410Z,32.60
2023-05-21T15:50:31.607Z,32.90
2023-05-21T15:53:00.758Z,32.70
2023-05-21T15:55:27.634Z,32.90
2023-05-21T15:58:01.408Z,32.90
2023-05-21T16:00:31.683Z,33.20
2023-05-21T16:03:03.562Z,34.00
2023-05-21T16:05:35.789Z,33.20
2023-05-21T16:08:03.094Z,33.00
2023-05-21T16:10:30.057Z,32.90
2023-05-21T16:13:01.759Z,33.00
2023-05-21T16:15:32.328Z,32.90
2023-05-21T16:18:02.138Z,33.00
2023-05-21T16:20:30.770Z,33.00
2023-05-21T16:23:03.549Z,32.80
2023-05-21T16:25:33.019Z,32.70
2023-05-21T16:28:02.190Z,32.80
2023-05-21T16:30:33.489Z,32.90
2023-05-21T16:33:00.824Z,32.80
2023-05-21T16:35:32.898Z,32.70
2023-05-21T16:37:59.898Z,32.80
2023-05-21T16:40:31.394Z,32.80
2023-05-21T16:43:02.245Z,32.80
2023-05-21T16:45:44.117Z,32.70
2023-05-21T16:48:13.369Z,32.60
2023-05-21T16:50:41.068Z,32.80
2023-05-21T16:53:09.723Z,32.80
2023-05-21T16:55:40.603Z,32.90
2023-05-21T16:58:10.793Z,33.00
2023-05-21T17:00:40.067Z,32.90
2023-05-21T17:03:07.009Z,32.90
2023-05-21T17:05:34.027Z,33.00
2023-05-21T17:08:00.989Z,33.00
2023-05-21T17:10:35.758Z,33.20
2023-05-21T17:13:17.459Z,33.10
2023-05-21T17:15:48.325Z,33.10
2023-05-21T17:18:17.760Z,33.10
2023-05-21T17:20:50.041Z,33.00
2023-05-21T17:23:19.868Z,32.90
2023-05-21T17:25:46.845Z,32.90
2023-05-21T17:28:16.980Z,33.00
2023-05-21T17:30:49.470Z,33.00
2023-05-21T17:33:19.168Z,33.00
2023-05-21T17:35:50.877Z,33.00
2023-05-21T17:38:19.867Z,33.10
2023-05-21T17:40:51.435Z,33.10
2023-05-21T17:43:22.796Z,33.10
2023-05-21T17:45:52.291Z,33.20
2023-05-21T17:48:19.286Z,33.30
2023-05-21T17:50:53.464Z,33.40
2023-05-21T17:53:20.670Z,33.40
2023-05-21T17:55:50.387Z,33.50
2023-05-21T17:58:19.524Z,33.60
2023-05-21T18:00:48.542Z,33.70
2023-05-21T18:03:15.491Z,33.80
2023-05-21T18:05:42.398Z,33.80
2023-05-21T18:08:11.764Z,33.90
2023-05-21T18:10:41.203Z,34.00
2023-05-21T18:13:08.090Z,34.10
2023-05-21T18:15:35.036Z,34.10
2023-05-21T18:18:04.464Z,34.10
2023-05-21T18:20:36.841Z,34.20
2023-05-21T18:23:06.229Z,34.30
2023-05-21T18:25:38.491Z,34.30
2023-05-21T18:28:08.360Z,34.50
2023-05-21T18:30:35.934Z,34.50
2023-05-21T18:33:05.390Z,34.70
2023-05-21T18:35:37.120Z,34.60
2023-05-21T18:38:09.684Z,34.70
2023-05-21T18:40:37.846Z,34.90
2023-05-21T18:43:10.844Z,34.90
2023-05-21T18:45:39.918Z,35.00
2023-05-21T18:48:09.335Z,35.10
2023-05-21T18:50:37.238Z,35.20
2023-05-21T18:53:10.411Z,35.30
2023-05-21T18:55:39.626Z,35.50
2023-05-21T18:58:06.548Z,35.50
2023-05-21T19:00:39.604Z,35.60
2023-05-21T19:03:06.827Z,35.80
2023-05-21T19:05:36.106Z,35.80
2023-05-21T19:08:03.923Z,35.90
2023-05-21T19:10:30.800Z,36.10
2023-05-21T19:12:57.863Z,36.20
2023-05-21T19:15:24.787Z,36.30
2023-05-21T19:17:54.240Z,36.50
2023-05-21T19:20:26.328Z,36.80
2023-05-21T19:22:54.788Z,37.10
2023-05-21T19:25:24.052Z,37.00
2023-05-21T19:27:57.799Z,37.10
2023-05-21T19:30:24.622Z,37.30
2023-05-21T19:32:53.940Z,37.20
2023-05-21T19:35:23.400Z,37.40
2023-05-21T19:37:54.450Z,37.50
2023-05-21T19:40:23.502Z,37.80
2023-05-21T19:42:50.372Z,37.90
2023-05-21T19:45:21.267Z,38.10
2023-05-21T19:47:51.169Z,38.10
2023-05-21T19:50:20.699Z,38.20
2023-05-21T19:52:50.221Z,38.40
2023-05-21T19:55:20.059Z,38.80
2023-05-21T19:57:49.441Z,38.60
2023-05-21T20:00:19.765Z,38.70
2023-05-21T20:02:46.747Z,38.90
2023-05-21T20:05:13.872Z,38.90
2023-05-21T20:07:41.244Z,39.20
2023-05-21T20:10:08.729Z,39.20
2023-05-21T20:12:43.156Z,39.30
2023-05-21T20:15:13.114Z,39.50
2023-05-21T20:17:44.070Z,39.40
2023-05-21T20:20:14.510Z,39.70
2023-05-21T20:22:41.427Z,39.70
2023-05-21T20:25:09.104Z,39.70
2023-05-21T20:27:38.635Z,39.90
2023-05-21T20:30:10.185Z,40.20
2023-05-21T20:32:37.316Z,40.40
2023-05-21T20:35:10.695Z,40.40
2023-05-21T20:37:37.639Z,40.60
2023-05-21T20:40:09.261Z,40.60
2023-05-21T20:42:36.513Z,40.70
2023-05-21T20:45:10.402Z,40.80
2023-05-21T20:47:38.352Z,40.90
2023-05-21T20:50:05.811Z,40.90
2023-05-21T20:52:32.706Z,41.00
2023-05-21T20:55:00.392Z,41.10
2023-05-21T20:57:28.371Z,41.30
2023-05-21T20:59:59.940Z,41.30
2023-05-21T21:02:29.305Z,41.60
2023-05-21T21:04:56.311Z,41.50
2023-05-21T21:07:29.984Z,41.70
2023-05-21T21:09:59.685Z,41.70
2023-05-21T21:12:31.716Z,41.90
2023-05-21T21:15:01.213Z,41.90
2023-05-21T21:17:32.720Z,42.00
2023-05-21T21:19:59.657Z,42.10
2023-05-21T21:22:31.431Z,42.30
2023-05-21T21:25:00.981Z,42.60
2023-05-21T21:27:34.903Z,42.70
2023-05-21T21:30:04.739Z,42.80
2023-05-21T21:32:33.717Z,43.00
2023-05-21T21:35:00.593Z,43.20
2023-05-21T21:37:32.287Z,43.30
2023-05-21T21:40:01.714Z,43.50
2023-05-21T21:42:33.542Z,43.60
2023-05-21T21:45:00.636Z,43.90
2023-05-21T21:47:30.132Z,43.80
2023-05-21T21:50:01.997Z,44.30
2023-05-21T21:52:33.467Z,44.40
2023-05-21T21:55:03.062Z,44.30
2023-05-21T21:57:32.268Z,44.50
2023-05-21T22:00:06.055Z,44.70
2023-05-21T22:02:34.958Z,44.90
2023-05-21T22:05:04.841Z,45.00
2023-05-21T22:07:32.063Z,45.20
2023-05-21T22:10:03.872Z,45.30
2023-05-21T22:12:39.404Z,45.50
2023-05-21T22:15:22.759Z,45.40
2023-05-21T22:17:50.220Z,45.60
2023-05-21T22:20:19.968Z,45.70
2023-05-21T22:22:46.970Z,45.70
2023-05-21T22:25:18.408Z,45.90
2023-05-21T22:27:47.657Z,46.10
2023-05-21T22:30:17.143Z,46.10
2023-05-21T22:32:44.219Z,46.50
2023-05-21T22:35:15.577Z,46.30
2023-05-21T22:37:44.725Z,46.40
2023-05-21T22:40:11.974Z,46.70
2023-05-21T22:42:41.245Z,46.60
2023-05-21T22:45:09.559Z,46.80
2023-05-21T22:47:39.312Z,46.80
2023-05-21T22:50:12.902Z,46.90
2023-05-21T22:52:43.381Z,47.40
2023-05-21T22:55:12.788Z,47.10
2023-05-21T22:57:40.075Z,47.20
2023-05-21T23:00:14.405Z,47.50
2023-05-21T23:02:46.406Z,47.70
2023-05-21T23:05:16.281Z,47.50
2023-05-21T23:07:43.189Z,47.80
2023-05-21T23:10:10.569Z,47.70
2023-05-21T23:12:40.847Z,48.50
2023-05-21T23:15:10.672Z,48.00
2023-05-21T23:17:39.855Z,48.00
2023-05-21T23:20:10.482Z,48.20
2023-05-21T23:22:39.851Z,48.10
2023-05-21T23:25:12.602Z,48.20
2023-05-21T23:27:42.085Z,48.30
2023-05-21T23:30:16.657Z,48.60
2023-05-21T23:32:43.594Z,48.40
2023-05-21T23:35:14.303Z,48.50
2023-05-21T23:37:41.189Z,48.50
2023-05-21T23:40:09.285Z,48.60
2023-05-21T23:42:41.269Z,48.80
2023-05-21T23:45:10.826Z,48.80
2023-05-21T23:47:39.933Z,48.80
2023-05-21T23:50:11.784Z,49.00
2023-05-21T23:52:38.715Z,49.10
2023-05-21T23:55:06.800Z,49.20
2023-05-21T23:57:36.639Z,49.30
